Time;durP1;ratioP1;P1;durP2;ratioP2;P2;SDS_P1;SDS_P2;PMS_P1;PMS_P2;Temp;Humidity;BMP_temperature;BMP_pressure;BME280_temperature;BME280_humidity;BME280_pressure;Samples;Min_cycle;Max_cycle;Signal;HPM_P1;HPM_P2
2023/10/07 00:01:24;;;;;;;0.80;0.50;;;;;;;-143.84;54.75;45096.66;5110091;28;20541;-61
2023/10/07 00:03:53;;;;;;;1.07;0.50;;;;;;;-143.84;54.69;45090.97;5110475;28;20439;-61
2023/10/07 00:06:25;;;;;;;1.37;0.60;;;;;;;-143.84;54.99;45073.81;5110272;28;20445;-61
2023/10/07 00:08:52;;;;;;;1.37;0.97;;;;;;;-143.84;55.24;45075.72;5110179;28;20515;-60
2023/10/07 00:11:19;;;;;;;0.80;0.50;;;;;;;-143.84;54.93;45075.72;5110423;28;20446;-59
2023/10/07 00:13:48;;;;;;;1.47;1.20;;;;;;;-143.84;55.02;45077.63;5110335;28;20438;-59
2023/10/07 00:16:18;;;;;;;1.33;0.77;;;;;;;-143.84;55.29;45083.34;5110152;28;20445;-58
2023/10/07 00:18:45;;;;;;;1.13;0.63;;;;;;;-143.84;55.47;45073.81;5110770;27;20454;-59
2023/10/07 00:21:16;;;;;;;1.30;0.83;;;;;;;-143.84;55.54;45087.16;5110733;28;20969;-60
2023/10/07 00:23:44;;;;;;;1.10;0.90;;;;;;;-143.84;55.81;45102.38;5110799;28;20808;-59
2023/10/07 00:26:13;;;;;;;2.53;1.50;;;;;;;-143.84;55.74;45089.06;5104390;28;20436;-60
2023/10/07 00:28:44;;;;;;;0.80;0.40;;;;;;;-143.84;55.95;45104.28;5089634;28;20600;-60
2023/10/07 00:31:13;;;;;;;0.90;0.77;;;;;;;-143.84;56.11;45100.47;5089960;28;20573;-60
2023/10/07 00:33:50;;;;;;;9.30;1.07;;;;;;;-143.84;56.03;45089.06;5090276;28;20444;-60
2023/10/07 00:36:41;;;;;;;2.17;1.50;;;;;;;-143.84;56.21;45094.78;5090353;28;20451;-59
2023/10/07 00:39:09;;;;;;;1.00;0.60;;;;;;;-143.84;56.42;45106.19;5089982;28;20515;-59
2023/10/07 00:41:39;;;;;;;1.20;0.83;;;;;;;-143.84;56.59;45094.78;5089600;28;20448;-60
2023/10/07 00:44:18;;;;;;;2.30;0.97;;;;;;;-143.84;56.70;45081.44;5089577;28;21296;-60
2023/10/07 00:46:48;;;;;;;1.00;0.60;;;;;;;-143.84;56.86;45077.63;5089732;28;20447;-59
2023/10/07 00:49:22;;;;;;;0.80;0.40;;;;;;;-143.84;57.19;45096.66;5089962;28;20600;-59
2023/10/07 00:51:52;;;;;;;1.27;1.17;;;;;;;-143.84;57.25;45098.56;5089059;28;20462;-59
2023/10/07 00:54:30;;;;;;;4.93;1.60;;;;;;;-143.84;57.55;45089.06;5089009;28;20449;-59
2023/10/07 00:57:08;;;;;;;0.80;0.43;;;;;;;-143.84;57.72;45108.09;5088500;28;20443;-60
2023/10/07 00:59:40;;;;;;;1.50;0.97;;;;;;;-143.84;58.04;45083.34;5088236;28;20447;-61
2023/10/07 01:02:10;;;;;;;0.80;0.33;;;;;;;-143.84;58.03;45037.66;5088154;28;20455;-61
2023/10/07 01:04:40;;;;;;;0.87;0.50;;;;;;;-143.84;58.14;45096.66;5088174;28;20450;-58
2023/10/07 01:07:12;;;;;;;0.80;0.50;;;;;;;-143.84;58.46;45092.88;5088103;28;20444;-58
2023/10/07 01:09:57;;;;;;;1.97;1.63;;;;;;;-143.84;58.84;45121.44;5088387;28;20453;-58
2023/10/07 01:12:25;;;;;;;1.20;0.50;;;;;;;-143.84;59.01;45115.72;5088478;28;20526;-58
2023/10/07 01:14:53;;;;;;;1.80;1.70;;;;;;;-143.84;59.16;45117.63;5088937;28;20447;-58
2023/10/07 01:17:30;;;;;;;1.40;1.00;;;;;;;-143.84;59.27;45087.16;5089488;28;20436;-59
2023/10/07 01:20:06;;;;;;;1.00;0.70;;;;;;;-143.84;59.26;45081.44;5089354;28;20470;-60
2023/10/07 01:22:36;;;;;;;1.37;0.87;;;;;;;-143.84;59.64;45170.94;5089179;28;20442;-59
2023/10/07 01:25:09;;;;;;;1.27;1.17;;;;;;;-143.84;59.66;45071.91;5088844;28;20438;-61
2023/10/07 01:27:45;;;;;;;1.37;0.60;;;;;;;-143.84;60.10;45090.97;5090937;28;20569;-60
2023/10/07 01:30:16;;;;;;;0.90;0.60;;;;;;;-143.84;60.56;45127.13;5092216;28;20447;-58
2023/10/07 01:32:54;;;;;;;0.90;0.70;;;;;;;-143.84;60.68;45106.19;5091532;28;20474;-61
2023/10/07 01:35:26;;;;;;;0.90;0.50;;;;;;;-143.84;60.96;45106.19;5092389;28;20847;-61
2023/10/07 01:38:07;;;;;;;4.73;0.50;;;;;;;-143.84;61.17;45039.53;5091806;28;20872;-61
2023/10/07 01:40:43;;;;;;;1.20;0.70;;;;;;;-143.84;61.31;45070.00;5092229;28;20447;-61
2023/10/07 01:43:10;;;;;;;1.10;0.50;;;;;;;-143.84;61.41;45108.09;5092253;28;20480;-61
2023/10/07 01:45:39;;;;;;;1.27;1.10;;;;;;;-143.84;61.87;45094.78;5092498;28;21204;-61
2023/10/07 01:48:08;;;;;;;0.80;0.50;;;;;;;-143.84;62.17;45117.63;5092395;28;20578;-61
2023/10/07 01:50:39;;;;;;;1.43;0.50;;;;;;;-143.84;62.32;45106.19;5092374;28;20450;-61
2023/10/07 01:53:09;;;;;;;1.23;0.83;;;;;;;-143.84;62.31;45092.88;5092034;28;20482;-61
2023/10/07 01:55:42;;;;;;;1.00;0.63;;;;;;;-143.84;62.54;45094.78;5092172;28;20513;-61
2023/10/07 01:58:13;;;;;;;1.43;0.77;;;;;;;-143.84;62.51;45106.19;5093202;28;20442;-60
2023/10/07 02:00:44;;;;;;;1.00;0.70;;;;;;;-143.84;62.74;45108.09;5092720;28;20451;-60
2023/10/07 02:03:16;;;;;;;0.90;0.60;;;;;;;-143.84;62.83;45075.72;5092891;28;20438;-60
2023/10/07 02:05:47;;;;;;;0.80;0.50;;;;;;;-143.84;62.91;45081.44;5092517;28;20939;-61
2023/10/07 02:08:20;;;;;;;0.90;0.50;;;;;;;-143.84;63.20;45096.66;5091797;28;20584;-61
2023/10/07 02:10:49;;;;;;;1.17;0.87;;;;;;;-143.84;63.31;45089.06;5091778;28;20443;-61
2023/10/07 02:13:19;;;;;;;0.90;0.50;;;;;;;-143.84;63.51;45098.56;5092094;28;20714;-61
2023/10/07 02:15:46;;;;;;;0.80;0.40;;;;;;;-143.84;63.81;45096.66;5092133;28;21038;-60
2023/10/07 02:18:16;;;;;;;0.80;0.50;;;;;;;-143.84;64.29;45081.44;5092658;28;21231;-60
2023/10/07 02:20:49;;;;;;;1.00;0.77;;;;;;;-143.84;64.44;45100.47;5092127;28;20546;-59
2023/10/07 02:23:28;;;;;;;1.80;0.93;;;;;;;-143.84;64.56;45100.47;5092100;28;20441;-59
2023/10/07 02:25:57;;;;;;;0.80;0.40;;;;;;;-143.84;64.72;45108.09;5092286;28;20537;-60
2023/10/07 02:28:29;;;;;;;0.90;0.60;;;;;;;-143.84;64.96;45098.56;5092101;28;20846;-60
2023/10/07 02:31:01;;;;;;;2.70;2.20;;;;;;;-143.84;65.06;45060.50;5091604;28;20462;-60
2023/10/07 02:33:29;;;;;;;1.77;0.80;;;;;;;-143.84;65.33;45087.16;5092052;28;20446;-60
2023/10/07 02:35:58;;;;;;;0.80;0.50;;;;;;;-143.84;65.34;45098.56;5092002;28;20447;-60
2023/10/07 02:38:36;;;;;;;0.80;0.40;;;;;;;-143.84;65.63;45090.97;5091426;28;20496;-60
2023/10/07 02:41:16;;;;;;;0.97;0.50;;;;;;;-143.84;65.60;45102.38;5091665;28;20441;-60
2023/10/07 02:43:48;;;;;;;2.30;1.27;;;;;;;-143.84;65.53;45117.63;5091583;28;21085;-60
2023/10/07 02:46:28;;;;;;;1.30;0.80;;;;;;;-143.84;65.45;45125.22;5091732;28;20447;-59
2023/10/07 02:49:04;;;;;;;0.80;0.37;;;;;;;-143.84;65.15;45110.00;5091827;28;20486;-59
2023/10/07 02:51:32;;;;;;;0.80;0.40;;;;;;;-143.84;65.11;45102.38;5091647;28;20439;-60
2023/10/07 02:54:06;;;;;;;0.80;0.50;;;;;;;-143.84;65.12;45077.63;5091763;28;20450;-59
2023/10/07 02:56:43;;;;;;;0.90;0.60;;;;;;;-143.84;64.98;45106.19;5091718;28;20836;-60
2023/10/07 02:59:28;;;;;;;1.00;0.60;;;;;;;-143.84;64.88;45111.91;5091592;28;20524;-59
2023/10/07 03:02:19;;;;;;;1.43;0.77;;;;;;;-143.84;64.76;45130.94;5092146;28;20498;-59
2023/10/07 03:04:59;;;;;;;0.90;0.50;;;;;;;-143.84;64.51;45119.53;5091582;28;20449;-60
2023/10/07 03:07:26;;;;;;;1.30;0.50;;;;;;;-143.84;64.48;45083.34;5092128;28;20553;-59
2023/10/07 03:10:04;;;;;;;0.80;0.60;;;;;;;-143.84;64.66;45096.66;5091922;28;20482;-60
2023/10/07 03:12:36;;;;;;;0.80;0.50;;;;;;;-143.84;64.76;45098.56;5091423;28;20530;-60
2023/10/07 03:15:20;;;;;;;0.80;0.50;;;;;;;-143.84;64.80;45117.63;5091588;28;20518;-59
2023/10/07 03:17:47;;;;;;;0.90;0.80;;;;;;;-143.84;65.02;45098.56;5091271;28;20438;-59
2023/10/07 03:20:28;;;;;;;1.10;1.00;;;;;;;-143.84;64.88;45090.97;5091202;28;20439;-59
2023/10/07 03:23:14;;;;;;;0.80;0.50;;;;;;;-143.84;65.23;45100.47;5091441;28;20445;-59
2023/10/07 03:26:05;;;;;;;1.07;0.63;;;;;;;-143.84;65.06;45119.53;5091364;28;20453;-60
2023/10/07 03:28:36;;;;;;;0.80;0.40;;;;;;;-143.84;65.12;45117.63;5090981;28;20579;-59
2023/10/07 03:31:08;;;;;;;1.10;0.70;;;;;;;-143.84;65.35;45130.94;5090762;28;20486;-60
2023/10/07 03:33:44;;;;;;;1.67;1.57;;;;;;;-143.84;65.43;45106.19;5091016;28;20454;-60
2023/10/07 03:36:30;;;;;;;1.37;1.13;;;;;;;-143.84;65.63;45115.72;5091201;28;20452;-59
2023/10/07 03:39:16;;;;;;;1.37;0.77;;;;;;;-143.84;65.86;45098.56;5091153;28;20524;-60
2023/10/07 03:41:47;;;;;;;1.20;0.90;;;;;;;-143.84;65.90;45098.56;5091119;28;20443;-59
2023/10/07 03:44:16;;;;;;;0.90;0.60;;;;;;;-143.84;66.21;45100.47;5090662;28;20495;-60
2023/10/07 03:46:47;;;;;;;1.00;0.60;;;;;;;-143.84;66.44;45094.78;5091040;28;20538;-59
2023/10/07 03:49:15;;;;;;;0.90;0.70;;;;;;;-143.84;66.73;45121.44;5092233;28;20535;-59
2023/10/07 03:51:42;;;;;;;1.43;1.10;;;;;;;-143.84;66.90;45094.78;5110494;28;20430;-59
2023/10/07 03:54:12;;;;;;;1.17;1.07;;;;;;;-143.84;67.04;45119.53;5110535;28;21112;-59
2023/10/07 03:56:39;;;;;;;1.63;1.43;;;;;;;-143.84;67.24;45117.63;5110121;28;20525;-59
2023/10/07 03:59:07;;;;;;;1.50;1.07;;;;;;;-143.84;67.44;45098.56;5110447;28;20510;-59
2023/10/07 04:01:42;;;;;;;0.90;0.53;;;;;;;-143.84;67.52;45106.19;5109232;28;20441;-59
2023/10/07 04:04:11;;;;;;;1.00;0.90;;;;;;;-143.84;67.79;45113.81;5109164;28;20468;-61
2023/10/07 04:06:40;;;;;;;0.83;0.50;;;;;;;-143.84;68.07;45110.00;5106479;28;20450;-59
2023/10/07 04:09:08;;;;;;;0.90;0.50;;;;;;;-143.84;68.20;45110.00;5109459;28;20458;-59
2023/10/07 04:11:36;;;;;;;0.90;0.67;;;;;;;-143.84;68.29;45092.88;5108829;28;20436;-59
2023/10/07 04:14:19;;;;;;;1.67;1.43;;;;;;;-143.84;68.43;45117.63;5106949;28;20507;-59
2023/10/07 04:16:50;;;;;;;1.00;0.53;;;;;;;-143.84;68.45;45127.13;5090078;28;20438;-59
2023/10/07 04:19:35;;;;;;;0.90;0.70;;;;;;;-143.84;68.76;45121.44;5106367;28;20444;-59
2023/10/07 04:22:03;;;;;;;0.93;0.70;;;;;;;-143.84;68.99;45138.56;5109980;28;20435;-59
2023/10/07 04:24:31;;;;;;;3.93;0.87;;;;;;;-143.84;69.17;45092.88;5109789;28;20502;-59
2023/10/07 04:27:03;;;;;;;0.90;0.53;;;;;;;-143.84;69.35;45096.66;5109378;28;20441;-59
2023/10/07 04:29:31;;;;;;;0.80;0.50;;;;;;;-143.84;69.53;45121.44;5109709;28;20468;-59
2023/10/07 04:32:05;;;;;;;0.90;0.70;;;;;;;-143.84;69.75;45102.38;5109503;28;20492;-59
2023/10/07 04:34:46;;;;;;;1.20;0.80;;;;;;;-143.84;69.84;45110.00;5109746;28;20924;-59
2023/10/07 04:37:16;;;;;;;1.77;1.33;;;;;;;-143.84;69.97;45108.09;5109606;28;20478;-59
2023/10/07 04:42:39;;;;;;;1.10;0.93;;;;;;;-143.84;70.25;45106.19;5109793;28;20421;-59
2023/10/07 04:45:22;;;;;;;0.90;0.70;;;;;;;-143.84;70.56;45111.91;5108742;28;21450;-59
2023/10/07 04:47:57;;;;;;;1.00;0.80;;;;;;;-143.84;70.60;45121.44;5109555;28;20890;-59
2023/10/07 04:50:33;;;;;;;0.80;0.43;;;;;;;-143.84;70.51;45129.03;5109740;28;20502;-59
2023/10/07 04:53:03;;;;;;;0.90;0.50;;;;;;;-143.84;70.62;45085.25;5109525;28;20477;-59
2023/10/07 04:55:29;;;;;;;0.80;0.43;;;;;;;-143.84;70.44;45123.34;5109205;28;20437;-59
2023/10/07 04:57:59;;;;;;;0.80;0.47;;;;;;;-143.84;70.51;45090.97;5110111;28;20442;-59
2023/10/07 05:00:36;;;;;;;0.80;0.50;;;;;;;-143.84;70.76;45106.19;5109247;28;20836;-60
2023/10/07 05:03:14;;;;;;;0.80;0.50;;;;;;;-143.84;70.77;45110.00;5109310;28;20452;-60
2023/10/07 05:05:43;;;;;;;0.80;0.60;;;;;;;-143.84;70.86;45102.38;5109554;28;20442;-60
2023/10/07 05:08:11;;;;;;;0.87;0.60;;;;;;;-143.84;70.95;45117.63;5109440;28;20456;-59
2023/10/07 05:10:39;;;;;;;0.90;0.70;;;;;;;-143.84;71.00;45110.00;5108693;28;20913;-60
2023/10/07 05:13:07;;;;;;;1.00;0.57;;;;;;;-143.84;70.46;45100.47;5109193;28;20960;-60
2023/10/07 05:15:36;;;;;;;3.77;1.60;;;;;;;-143.84;70.81;45106.19;5108809;28;20510;-60
2023/10/07 05:18:05;;;;;;;1.30;1.20;;;;;;;-143.84;71.02;45100.47;5107971;28;20886;-60
2023/10/07 05:20:33;;;;;;;1.50;1.23;;;;;;;-143.84;71.08;45056.69;5108898;28;20481;-60
2023/10/07 05:23:03;;;;;;;1.23;0.90;;;;;;;-143.84;71.59;45111.91;5108799;28;20497;-60
2023/10/07 05:25:35;;;;;;;1.70;1.23;;;;;;;-143.84;72.19;45102.38;5107658;28;20453;-60
2023/10/07 05:28:06;;;;;;;0.90;0.80;;;;;;;-143.84;71.40;45087.16;5108110;28;20468;-60
2023/10/07 05:30:36;;;;;;;1.97;1.77;;;;;;;-143.84;70.04;45094.78;5108304;28;20482;-60
2023/10/07 05:33:08;;;;;;;0.80;0.60;;;;;;;-143.84;69.32;45100.47;5108136;28;20977;-60
2023/10/07 05:35:37;;;;;;;0.90;0.47;;;;;;;-143.84;66.13;45066.22;5109195;28;20462;-60
2023/10/07 05:38:09;;;;;;;0.90;0.60;;;;;;;-143.84;66.35;45096.66;5109078;28;20521;-60
2023/10/07 05:40:37;;;;;;;0.90;0.63;;;;;;;-143.84;65.08;45127.13;5108238;28;20447;-60
2023/10/07 05:43:07;;;;;;;1.10;0.97;;;;;;;-143.84;65.17;45073.81;5108733;28;21230;-60
2023/10/07 05:45:35;;;;;;;4.70;0.70;;;;;;;-143.84;61.22;45070.00;5108966;28;20435;-60
2023/10/07 05:48:02;;;;;;;0.80;0.40;;;;;;;-143.84;61.39;45068.13;5108521;28;20439;-60
2023/10/07 05:50:32;;;;;;;2.17;0.63;;;;;;;-143.84;58.98;45077.63;5108959;28;21071;-60
2023/10/07 05:52:59;;;;;;;0.80;0.40;;;;;;;-143.84;56.79;45064.31;5108824;28;20447;-60
2023/10/07 05:55:28;;;;;;;0.80;0.40;;;;;;;-143.84;56.14;45050.97;5108316;28;20492;-60
2023/10/07 05:57:55;;;;;;;1.00;0.60;;;;;;;-143.84;54.30;45054.78;5108528;28;20526;-60
2023/10/07 06:00:24;;;;;;;0.90;0.57;;;;;;;-143.84;52.88;45037.66;5108698;28;20956;-60
2023/10/07 06:02:53;;;;;;;1.13;0.80;;;;;;;-143.84;51.19;45064.31;5108461;28;20517;-60
2023/10/07 06:05:20;;;;;;;2.30;0.70;;;;;;;-143.84;51.10;45024.31;5108833;28;20959;-60
2023/10/07 06:07:49;;;;;;;0.90;0.60;;;;;;;-143.84;48.54;45039.53;5108371;28;20443;-60
2023/10/07 06:10:16;;;;;;;1.10;0.70;;;;;;;-143.84;48.08;45045.25;5108006;28;20479;-60
2023/10/07 06:12:43;;;;;;;1.00;0.57;;;;;;;-143.84;48.23;45026.22;5109377;28;20439;-60
2023/10/07 06:15:11;;;;;;;1.00;0.50;;;;;;;-143.84;47.56;45030.03;5112511;28;20517;-60
2023/10/07 06:17:41;;;;;;;0.80;0.50;;;;;;;-143.84;47.22;45041.44;5112393;28;20439;-60
2023/10/07 06:20:14;;;;;;;0.90;0.70;;;;;;;-143.84;47.54;45035.75;5112482;27;20435;-60
2023/10/07 06:22:48;;;;;;;1.00;0.53;;;;;;;-143.84;47.52;45033.84;5112877;28;20847;-60
2023/10/07 06:25:17;;;;;;;2.30;0.87;;;;;;;-143.84;47.32;44999.56;5112092;28;20442;-60
2023/10/07 06:27:44;;;;;;;1.00;0.87;;;;;;;-143.84;46.82;45026.22;5112401;28;20538;-60
2023/10/07 06:30:20;;;;;;;0.90;0.60;;;;;;;-143.84;47.48;45041.44;5112029;28;21266;-60
2023/10/07 06:32:55;;;;;;;1.10;0.73;;;;;;;-143.84;46.97;45014.78;5098630;28;21048;-60
2023/10/07 06:35:23;;;;;;;1.63;0.90;;;;;;;-143.84;47.23;45022.41;5091618;28;20454;-60
2023/10/07 06:37:51;;;;;;;1.10;0.80;;;;;;;-143.84;46.49;45119.53;5091689;28;20949;-60
2023/10/07 06:40:28;;;;;;;1.07;0.77;;;;;;;-143.84;46.28;45005.28;5090599;28;20957;-60
2023/10/07 06:42:58;;;;;;;0.87;0.60;;;;;;;-143.84;46.70;45010.97;5090794;28;20467;-60
2023/10/07 06:45:29;;;;;;;0.80;0.40;;;;;;;-143.84;46.26;45033.84;5090326;28;21119;-60
2023/10/07 06:47:59;;;;;;;1.10;0.50;;;;;;;-143.84;46.49;44999.56;5090981;28;21302;-60
2023/10/07 06:50:28;;;;;;;0.90;0.60;;;;;;;-143.84;46.08;45016.69;5090888;28;21054;-60
2023/10/07 06:52:56;;;;;;;1.00;0.63;;;;;;;-143.84;45.71;45041.44;5090640;28;20514;-60
2023/10/07 06:55:24;;;;;;;1.90;1.00;;;;;;;-143.84;45.61;45024.31;5089865;28;20523;-60
2023/10/07 06:57:56;;;;;;;1.47;0.93;;;;;;;-143.84;45.81;45014.78;5090809;28;20543;-60
2023/10/07 07:00:23;;;;;;;1.10;0.70;;;;;;;-143.84;44.84;45005.28;5108047;28;20535;-60
2023/10/07 07:02:59;;;;;;;1.20;0.83;;;;;;;-143.84;45.79;45022.41;5108916;28;20454;-60
2023/10/07 07:05:28;;;;;;;1.87;0.60;;;;;;;-143.84;45.75;45010.97;5110580;28;20449;-60
2023/10/07 07:07:55;;;;;;;1.40;0.70;;;;;;;-143.84;46.01;45003.38;5110626;28;20555;-60
2023/10/07 07:10:31;;;;;;;0.90;0.50;;;;;;;-143.84;46.65;45009.09;5110764;28;20471;-60
2023/10/07 07:13:04;;;;;;;3.63;1.10;;;;;;;-143.84;45.25;45022.41;5110831;28;20439;-60
2023/10/07 07:15:36;;;;;;;2.27;0.87;;;;;;;-143.84;45.24;45016.69;5110606;28;20508;-60
2023/10/07 07:18:08;;;;;;;1.50;1.00;;;;;;;-143.84;45.11;45007.19;5111089;28;20928;-60
2023/10/07 07:20:48;;;;;;;1.10;0.60;;;;;;;-143.84;44.70;45022.41;5111209;28;20461;-60
2023/10/07 07:23:17;;;;;;;0.90;0.73;;;;;;;-143.84;44.67;45005.28;5110765;28;20512;-60
2023/10/07 07:25:50;;;;;;;0.90;0.63;;;;;;;-143.84;44.28;45018.59;5109806;28;20455;-60
2023/10/07 07:28:18;;;;;;;0.90;0.50;;;;;;;-143.84;44.16;45014.78;5111177;28;20492;-60
2023/10/07 07:30:46;;;;;;;1.10;0.77;;;;;;;-143.84;44.41;45022.41;5110863;28;20548;-60
2023/10/07 07:33:15;;;;;;;1.00;0.90;;;;;;;-143.84;43.92;45010.97;5111302;28;20874;-60
2023/10/07 07:35:44;;;;;;;1.53;1.00;;;;;;;-143.84;43.82;45010.97;5111038;28;20455;-60
2023/10/07 07:38:17;;;;;;;1.93;1.10;;;;;;;-143.84;44.30;45001.47;5110587;28;20438;-60
2023/10/07 07:40:46;;;;;;;1.20;0.93;;;;;;;-143.84;43.75;44993.84;5110750;28;20462;-60
2023/10/07 07:43:14;;;;;;;1.67;0.93;;;;;;;-143.84;43.51;45016.69;5110922;28;20854;-60
2023/10/07 07:45:41;;;;;;;2.00;1.60;;;;;;;-143.84;42.84;45024.31;5111033;28;20475;-60
2023/10/07 07:48:11;;;;;;;1.47;0.90;;;;;;;-143.84;42.42;44993.84;5110863;28;20427;-60
2023/10/07 07:50:41;;;;;;;1.37;1.07;;;;;;;-143.84;42.54;45009.09;5110493;28;20471;-60
2023/10/07 07:53:09;;;;;;;2.03;0.70;;;;;;;-143.84;41.93;44988.13;5109609;28;21139;-60
2023/10/07 07:55:43;;;;;;;2.70;0.70;;;;;;;-143.84;41.79;44990.03;5109781;28;20443;-60
2023/10/07 07:58:13;;;;;;;1.00;0.60;;;;;;;-143.84;41.49;44997.66;5109968;28;20479;-60
2023/10/07 08:00:44;;;;;;;2.23;0.90;;;;;;;-143.84;41.97;45007.19;5110554;28;20470;-60
2023/10/07 08:03:12;;;;;;;3.30;1.17;;;;;;;-143.84;41.33;44997.66;5109812;28;21361;-60
2023/10/07 08:05:42;;;;;;;1.73;1.10;;;;;;;-143.84;42.55;44980.53;5110030;28;20447;-60
2023/10/07 08:08:19;;;;;;;1.10;0.60;;;;;;;-143.84;41.02;44978.63;5109430;28;20779;-60
2023/10/07 08:10:47;;;;;;;0.90;0.70;;;;;;;-143.84;41.48;44984.31;5109840;28;20834;-60
2023/10/07 08:13:23;;;;;;;1.33;0.73;;;;;;;-143.84;41.74;44991.94;5108540;28;20470;-60
2023/10/07 08:15:51;;;;;;;1.70;0.87;;;;;;;-143.84;42.31;44995.75;5091994;28;20456;-60
2023/10/07 08:18:22;;;;;;;0.97;0.80;;;;;;;-143.84;40.57;44980.53;5089489;28;20439;-60
2023/10/07 08:20:56;;;;;;;1.13;0.77;;;;;;;-143.84;41.01;44957.66;5089519;28;20448;-60
2023/10/07 08:23:28;;;;;;;1.10;0.70;;;;;;;-143.84;41.14;45007.19;5089099;28;20953;-60
2023/10/07 08:26:08;;;;;;;1.40;0.77;;;;;;;-143.84;40.21;44984.31;5089526;28;20515;-60
2023/10/07 08:28:42;;;;;;;0.80;0.40;;;;;;;-143.84;41.37;44997.66;5089706;28;20441;-60
2023/10/07 08:31:19;;;;;;;1.37;0.90;;;;;;;-143.84;40.13;44984.31;5089100;28;20500;-59
2023/10/07 08:33:53;;;;;;;1.07;0.97;;;;;;;-143.84;40.38;44974.81;5089259;28;20509;-59
2023/10/07 08:36:27;;;;;;;1.10;0.70;;;;;;;-143.84;40.21;45001.47;5088994;28;20444;-60
2023/10/07 08:38:58;;;;;;;1.17;0.60;;;;;;;-143.84;40.74;44978.63;5090333;28;20542;-60
2023/10/07 08:41:28;;;;;;;0.90;0.50;;;;;;;-143.84;38.69;44990.03;5108811;28;20503;-60
2023/10/07 08:44:12;;;;;;;1.20;0.77;;;;;;;-143.84;39.55;45026.22;5109407;28;20849;-60
2023/10/07 08:46:40;;;;;;;1.10;0.87;;;;;;;-143.84;40.11;44976.72;5109737;28;20438;-60
2023/10/07 08:49:13;;;;;;;2.57;0.90;;;;;;;-143.84;40.25;45001.47;5109322;28;20446;-60
2023/10/07 08:51:43;;;;;;;1.40;0.80;;;;;;;-143.84;40.14;44995.75;5109190;28;20483;-60
2023/10/07 08:54:25;;;;;;;1.30;1.10;;;;;;;-143.84;41.86;44995.75;5108548;28;20427;-60
2023/10/07 08:56:57;;;;;;;1.10;0.80;;;;;;;-143.84;40.97;44991.94;5109432;28;20443;-60
2023/10/07 08:59:30;;;;;;;1.10;0.70;;;;;;;-143.84;41.95;44990.03;5109214;28;20935;-60
2023/10/07 09:02:00;;;;;;;0.90;0.60;;;;;;;-143.84;41.71;44991.94;5109020;28;20431;-60
2023/10/07 09:04:31;;;;;;;2.07;0.80;;;;;;;-143.84;42.76;44993.84;5109142;28;20503;-60
2023/10/07 09:06:59;;;;;;;1.67;0.87;;;;;;;-143.84;43.10;45007.19;5108544;28;20496;-60
2023/10/07 09:09:38;;;;;;;1.57;0.83;;;;;;;-143.84;43.10;45030.03;5108824;28;20435;-60
2023/10/07 09:12:14;;;;;;;0.90;0.60;;;;;;;-143.84;42.86;45026.22;5109086;28;20995;-60
2023/10/07 09:14:47;;;;;;;1.00;0.63;;;;;;;-143.84;42.91;44986.22;5109056;28;20531;-60
2023/10/07 09:17:15;;;;;;;1.20;0.70;;;;;;;-143.84;43.08;45001.47;5108986;28;20432;-60
2023/10/07 09:19:47;;;;;;;1.00;0.83;;;;;;;-143.84;43.79;45007.19;5108693;28;20463;-60
2023/10/07 09:22:17;;;;;;;1.53;0.70;;;;;;;-143.84;42.68;45010.97;5108525;28;20443;-60
2023/10/07 09:24:44;;;;;;;1.27;0.80;;;;;;;-143.84;42.20;44980.53;5109146;28;20435;-60
2023/10/07 09:27:14;;;;;;;1.10;0.80;;;;;;;-143.84;42.33;45001.47;5109437;28;20550;-60
2023/10/07 09:29:51;;;;;;;0.90;0.57;;;;;;;-143.84;42.74;45016.69;5109091;28;20425;-60
2023/10/07 09:32:22;;;;;;;0.90;0.50;;;;;;;-143.84;43.52;45016.69;5108708;28;20493;-60
2023/10/07 09:34:55;;;;;;;6.50;0.90;;;;;;;-143.84;42.80;45043.34;5108939;28;20439;-60
2023/10/07 09:37:26;;;;;;;0.90;0.60;;;;;;;-143.84;44.58;45012.88;5108041;28;20443;-60
2023/10/07 09:40:19;;;;;;;1.10;0.70;;;;;;;-143.84;42.41;45003.38;5108887;28;20427;-60
2023/10/07 09:42:56;;;;;;;0.90;0.60;;;;;;;-143.84;41.03;45020.50;5108745;28;20439;-60
2023/10/07 09:45:31;;;;;;;0.93;0.80;;;;;;;-143.84;41.03;44988.13;5108653;28;20447;-60
2023/10/07 09:48:01;;;;;;;1.10;0.80;;;;;;;-143.84;41.38;45014.78;5108633;28;20446;-60
2023/10/07 09:50:33;;;;;;;1.60;0.60;;;;;;;-143.84;42.14;45037.66;5104876;28;20485;-60
2023/10/07 09:53:21;;;;;;;0.80;0.50;;;;;;;-143.84;41.59;45010.97;5112025;27;20443;-60
2023/10/07 09:56:04;;;;;;;1.17;1.07;;;;;;;-143.84;42.43;44982.41;5110825;28;20439;-60
2023/10/07 09:58:47;;;;;;;1.40;0.67;;;;;;;-143.84;41.76;44993.84;5112667;28;20538;-60
2023/10/07 10:01:36;;;;;;;1.20;0.80;;;;;;;-143.84;42.54;45026.22;5112813;27;20443;-60
2023/10/07 10:04:32;;;;;;;1.70;1.07;;;;;;;-143.84;42.64;44988.13;5112935;28;20451;-60
2023/10/07 10:07:13;;;;;;;0.90;0.60;;;;;;;-143.84;44.57;45005.28;5112179;28;20447;-60
2023/10/07 10:10:00;;;;;;;1.00;0.60;;;;;;;-143.84;43.61;45026.22;5113010;28;20427;-60
2023/10/07 10:12:48;;;;;;;0.90;0.50;;;;;;;-143.84;43.30;45001.47;5112890;28;20462;-60
2023/10/07 10:18:02;;;;;;;4.40;2.53;;;;;;;-143.84;44.73;44995.75;5112706;28;20439;-60
2023/10/07 10:20:42;;;;;;;1.13;0.70;;;;;;;-143.84;45.03;45030.03;5112808;28;20438;-60
2023/10/07 10:23:18;;;;;;;0.90;0.50;;;;;;;-143.84;44.60;45010.97;5112204;28;20434;-60
2023/10/07 10:25:48;;;;;;;1.30;1.03;;;;;;;-143.84;44.84;45014.78;5112483;27;20435;-59
2023/10/07 10:28:21;;;;;;;0.87;0.57;;;;;;;-143.84;44.91;45014.78;5112425;28;20469;-59
2023/10/07 10:30:53;;;;;;;0.80;0.40;;;;;;;-143.84;45.06;45001.47;5112153;27;20547;-60
2023/10/07 10:33:25;;;;;;;0.90;0.50;;;;;;;-143.84;45.34;45018.59;5112724;28;20443;-60
2023/10/07 10:35:57;;;;;;;1.63;1.03;;;;;;;-143.84;45.95;45016.69;5112090;28;20447;-60
2023/10/07 10:38:34;;;;;;;1.53;0.87;;;;;;;-143.84;45.57;45020.50;5112235;28;20447;-60
2023/10/07 10:41:04;;;;;;;0.90;0.57;;;;;;;-143.84;44.93;45016.69;5112642;27;20509;-60
2023/10/07 10:43:32;;;;;;;2.00;0.90;;;;;;;-143.84;46.20;45035.75;5112510;28;20450;-60
2023/10/07 10:46:04;;;;;;;0.80;0.50;;;;;;;-143.84;47.23;45026.22;5112548;28;20495;-60
2023/10/07 10:48:34;;;;;;;0.90;0.50;;;;;;;-143.84;47.44;45018.59;5112608;28;20525;-59
2023/10/07 10:51:05;;;;;;;1.53;1.27;;;;;;;-143.84;46.57;45007.19;5111912;28;21268;-60
2023/10/07 10:53:33;;;;;;;1.43;0.70;;;;;;;-143.84;46.46;45024.31;5112390;28;20941;-59
2023/10/07 10:56:01;;;;;;;1.00;0.70;;;;;;;-143.84;46.38;45031.94;5112040;28;20439;-60
2023/10/07 10:58:29;;;;;;;1.23;0.60;;;;;;;-143.84;46.48;44995.75;5111618;28;20463;-60
2023/10/07 11:00:56;;;;;;;0.90;0.53;;;;;;;-143.84;45.27;45010.97;5096185;28;20490;-60
2023/10/07 11:03:23;;;;;;;1.00;0.70;;;;;;;-143.84;46.49;45018.59;5091281;28;20448;-60
2023/10/07 11:05:54;;;;;;;0.90;0.63;;;;;;;-143.84;46.48;45001.47;5098746;28;20810;-60
2023/10/07 11:08:23;;;;;;;1.00;0.60;;;;;;;-143.84;46.07;45010.97;5111269;28;20443;-60
2023/10/07 11:10:53;;;;;;;1.57;0.87;;;;;;;-143.84;46.38;45020.50;5111567;28;20477;-60
2023/10/07 11:13:20;;;;;;;1.00;0.87;;;;;;;-143.84;45.15;45010.97;5111251;28;20446;-60
2023/10/07 11:16:09;;;;;;;0.90;0.70;;;;;;;-143.84;45.04;45020.50;5111351;28;20447;-60
2023/10/07 11:18:37;;;;;;;3.13;0.57;;;;;;;-143.84;45.44;45033.84;5111632;28;20423;-60
2023/10/07 11:21:11;;;;;;;1.90;0.73;;;;;;;-143.84;45.30;45035.75;5110667;28;20518;-60
2023/10/07 11:23:46;;;;;;;0.80;0.40;;;;;;;-143.84;45.87;45031.94;5111522;28;20439;-60
2023/10/07 11:26:14;;;;;;;0.90;0.60;;;;;;;-143.84;45.81;45020.50;5111477;28;20438;-60
2023/10/07 11:28:42;;;;;;;1.33;0.90;;;;;;;-143.84;46.04;45031.94;5111336;28;20438;-60
2023/10/07 11:31:09;;;;;;;1.10;0.60;;;;;;;-143.84;45.98;45041.44;5110979;28;20490;-60
2023/10/07 11:33:36;;;;;;;1.93;0.80;;;;;;;-143.84;46.53;45020.50;5111226;28;20431;-60
2023/10/07 11:36:04;;;;;;;1.43;0.50;;;;;;;-143.84;46.21;45024.31;5110648;28;20443;-60
2023/10/07 11:38:33;;;;;;;0.90;0.50;;;;;;;-143.84;46.26;45031.94;5111562;28;20443;-60
2023/10/07 11:41:00;;;;;;;1.03;0.83;;;;;;;-143.84;47.52;45024.31;5110773;28;20531;-60
2023/10/07 11:43:29;;;;;;;0.90;0.70;;;;;;;-143.84;47.34;45024.31;5110636;28;20427;-60
2023/10/07 11:45:56;;;;;;;0.90;0.50;;;;;;;-143.84;46.95;45003.38;5110856;28;20435;-60